createdAt,value
2023-04-06T00:00:38.863Z,100156.56
2023-04-06T00:03:06.974Z,100161.44
2023-04-06T00:05:34.255Z,100155.47
2023-04-06T00:08:01.466Z,100159.50
2023-04-06T00:10:29.089Z,100149.84
2023-04-06T00:12:57.640Z,100155.87
2023-04-06T00:15:24.840Z,100157.50
2023-04-06T00:17:52.424Z,100153.91
2023-04-06T00:20:19.645Z,100153.22
2023-04-06T00:22:46.880Z,100156.25
2023-04-06T00:25:16.310Z,100146.97
2023-04-06T00:27:43.568Z,100151.19
2023-04-06T00:30:10.960Z,100148.84
2023-04-06T00:32:38.552Z,100146.19
2023-04-06T00:35:06.475Z,100144.16
2023-04-06T00:37:33.769Z,100136.47
2023-04-06T00:40:01.285Z,100128.06
2023-04-06T00:42:28.586Z,100129.38
2023-04-06T00:44:56.380Z,100122.50
2023-04-06T00:47:24.392Z,100129.63
2023-04-06T00:49:51.595Z,100125.31
2023-04-06T00:52:19.068Z,100128.22
2023-04-06T00:54:46.916Z,100126.28
2023-04-06T00:57:14.568Z,100125.13
2023-04-06T00:59:43.084Z,100124.19
2023-04-06T01:02:11.394Z,100128.06
2023-04-06T01:04:39.305Z,100136.31
2023-04-06T01:07:07.729Z,100123.44
2023-04-06T01:09:36.642Z,100122.84
2023-04-06T01:12:04.860Z,100130.38
2023-04-06T01:14:32.474Z,100135.91
2023-04-06T01:17:01.497Z,100129.41
2023-04-06T01:19:29.012Z,100133.09
2023-04-06T01:21:56.573Z,100132.19
2023-04-06T01:24:25.395Z,100134.38
2023-04-06T01:26:53.306Z,100140.66
2023-04-06T01:29:20.742Z,100134.72
2023-04-06T01:31:49.539Z,100130.19
2023-04-06T01:34:17.223Z,100135.66
2023-04-06T01:36:44.547Z,100129.28
2023-04-06T01:39:15.869Z,100126.75
2023-04-06T01:41:43.165Z,100127.34
2023-04-06T01:44:10.460Z,100124.41
2023-04-06T01:46:37.912Z,100129.16
2023-04-06T01:49:07.013Z,100123.28
2023-04-06T01:51:34.460Z,100123.22
2023-04-06T01:54:02.241Z,100120.09
2023-04-06T01:56:31.153Z,100115.31
2023-04-06T01:58:59.267Z,100116.97
2023-04-06T02:01:27.543Z,100112.91
2023-04-06T02:03:55.409Z,100114.53
2023-04-06T02:06:22.654Z,100117.06
2023-04-06T02:08:50.077Z,100115.13
2023-04-06T02:11:17.610Z,100111.09
2023-04-06T02:13:45.391Z,100110.50
2023-04-06T02:16:12.911Z,100106.16
2023-04-06T02:18:40.739Z,100104.31
2023-04-06T02:21:08.085Z,100107.75
2023-04-06T02:23:35.348Z,100104.72
2023-04-06T02:26:02.816Z,100103.66
2023-04-06T02:28:30.008Z,100105.31
2023-04-06T02:30:57.496Z,100090.03
2023-04-06T02:33:25.535Z,100095.28
2023-04-06T02:35:52.991Z,100090.16
2023-04-06T02:38:20.511Z,100085.88
2023-04-06T02:40:47.738Z,100089.97
2023-04-06T02:43:16.460Z,100091.72
2023-04-06T02:45:44.624Z,100087.78
2023-04-06T02:48:12.185Z,100086.66
2023-04-06T02:50:39.406Z,100089.59
2023-04-06T02:53:07.401Z,100089.28
2023-04-06T02:55:35.567Z,100086.94
2023-04-06T02:58:02.831Z,100085.25
2023-04-06T03:00:31.163Z,100088.91
2023-04-06T03:02:58.561Z,100082.50
2023-04-06T03:05:26.134Z,100087.13
2023-04-06T03:07:53.741Z,100083.44
2023-04-06T03:10:21.638Z,100082.72
2023-04-06T03:12:49.156Z,100086.84
2023-04-06T03:15:16.728Z,100078.09
2023-04-06T03:17:44.705Z,100083.19
2023-04-06T03:20:12.998Z,100088.34
2023-04-06T03:22:40.441Z,100086.88
2023-04-06T03:25:07.910Z,100087.91
2023-04-06T03:27:35.487Z,100086.91
2023-04-06T03:30:04.082Z,100082.56
2023-04-06T03:32:31.777Z,100084.22
2023-04-06T03:34:59.297Z,100083.31
2023-04-06T03:37:26.769Z,100084.06
2023-04-06T03:39:55.047Z,100081.88
2023-04-06T03:42:22.476Z,100088.09
2023-04-06T03:44:49.983Z,100090.34
2023-04-06T03:47:17.723Z,100086.56
2023-04-06T03:49:44.948Z,100096.38
2023-04-06T03:52:12.653Z,100093.91
2023-04-06T03:54:39.882Z,100087.91
2023-04-06T03:57:07.226Z,100091.06
2023-04-06T03:59:34.792Z,100088.66
2023-04-06T04:02:02.190Z,100089.84
2023-04-06T04:04:30.420Z,100080.25
2023-04-06T04:06:58.816Z,100083.03
2023-04-06T04:09:28.496Z,100075.25
2023-04-06T04:11:57.373Z,100080.19
2023-04-06T04:14:24.608Z,100076.19
2023-04-06T04:16:51.834Z,100081.56
2023-04-06T04:19:19.357Z,100074.59
2023-04-06T04:21:47.144Z,100080.31
2023-04-06T04:24:14.706Z,100078.50
2023-04-06T04:26:42.255Z,100077.06
2023-04-06T04:29:09.779Z,100082.00
2023-04-06T04:31:37.386Z,100082.06
2023-04-06T04:34:05.129Z,100075.56
2023-04-06T04:36:32.562Z,100076.56
2023-04-06T04:39:02.172Z,100087.13
2023-04-06T04:41:30.543Z,100080.25
2023-04-06T04:43:59.122Z,100077.84
2023-04-06T04:46:26.507Z,100078.28
2023-04-06T04:48:54.526Z,100078.75
2023-04-06T04:51:21.931Z,100076.16
2023-04-06T04:53:50.247Z,100078.84
2023-04-06T04:56:17.978Z,100071.81
2023-04-06T04:58:45.868Z,100074.09
2023-04-06T05:01:13.370Z,100063.47
2023-04-06T05:03:41.239Z,100068.09
2023-04-06T05:06:10.450Z,100056.41
2023-04-06T05:08:40.625Z,100057.34
2023-04-06T05:11:08.300Z,100061.00
2023-04-06T05:13:35.978Z,100062.84
2023-04-06T05:16:06.742Z,100069.50
2023-04-06T05:18:35.548Z,100066.06
2023-04-06T05:21:03.148Z,100063.41
2023-04-06T05:23:31.339Z,100061.47
2023-04-06T05:26:02.289Z,100049.94
2023-04-06T05:28:29.563Z,100049.88
2023-04-06T05:30:57.924Z,100046.06
2023-04-06T05:33:27.287Z,100038.97
2023-04-06T05:35:55.883Z,100037.63
2023-04-06T05:38:23.429Z,100040.81
2023-04-06T05:40:51.318Z,100035.25
2023-04-06T05:43:21.064Z,100042.12
2023-04-06T05:45:52.621Z,100029.88
2023-04-06T05:48:20.641Z,100036.13
2023-04-06T05:50:57.223Z,100036.28
2023-04-06T05:53:27.471Z,100033.97
2023-04-06T05:55:55.126Z,100032.41
2023-04-06T05:58:22.393Z,100031.19
2023-04-06T06:00:50.677Z,100025.84
2023-04-06T06:03:18.611Z,100022.75
2023-04-06T06:05:47.200Z,100026.00
2023-04-06T06:08:15.543Z,100017.66
2023-04-06T06:10:43.096Z,100016.22
2023-04-06T06:13:11.272Z,100012.22
2023-04-06T06:15:38.760Z,100007.97
2023-04-06T06:18:06.662Z,100023.53
2023-04-06T06:20:33.990Z,100012.25
2023-04-06T06:23:01.501Z,100014.81
2023-04-06T06:25:31.764Z,100009.47
2023-04-06T06:27:59.356Z,100006.31
2023-04-06T06:30:27.307Z,100008.06
2023-04-06T06:32:54.807Z,100007.56
2023-04-06T06:35:23.708Z,100002.47
2023-04-06T06:37:51.325Z,99981.78
2023-04-06T06:40:21.048Z,99982.31
2023-04-06T06:42:48.390Z,99983.63
2023-04-06T06:45:16.720Z,99983.31
2023-04-06T06:47:44.289Z,99983.06
2023-04-06T06:50:12.253Z,99977.31
2023-04-06T06:52:39.510Z,99982.88
2023-04-06T06:55:07.288Z,99976.38
2023-04-06T06:57:35.866Z,99971.53
2023-04-06T07:00:03.719Z,99980.13
2023-04-06T07:02:31.252Z,99980.34
2023-04-06T07:04:58.713Z,99973.44
2023-04-06T07:07:26.562Z,99966.84
2023-04-06T07:09:54.196Z,99974.56
2023-04-06T07:12:21.620Z,99965.88
2023-04-06T07:14:48.994Z,99975.34
2023-04-06T07:17:16.936Z,99965.41
2023-04-06T07:19:47.276Z,99971.53
2023-04-06T07:22:14.610Z,99965.31
2023-04-06T07:24:42.275Z,99959.19
2023-04-06T07:27:09.481Z,99969.19
2023-04-06T07:29:36.739Z,99963.00
2023-04-06T07:32:04.868Z,99968.59
2023-04-06T07:34:32.723Z,99960.38
2023-04-06T07:37:03.861Z,99960.56
2023-04-06T07:39:31.743Z,99955.34
2023-04-06T07:41:59.093Z,99959.22
2023-04-06T07:44:26.515Z,99957.66
2023-04-06T07:46:54.155Z,99951.22
2023-04-06T07:49:22.032Z,99952.66
2023-04-06T07:51:49.492Z,99946.78
2023-04-06T07:54:17.100Z,99954.59
2023-04-06T07:56:44.284Z,99951.22
2023-04-06T07:59:12.479Z,99946.53
2023-04-06T08:01:40.042Z,99947.22
2023-04-06T08:04:07.970Z,99939.03
2023-04-06T08:06:37.358Z,99938.34
2023-04-06T08:09:04.796Z,99946.53
2023-04-06T08:11:32.277Z,99943.00
2023-04-06T08:13:59.572Z,99950.13
2023-04-06T08:16:26.784Z,99943.62
2023-04-06T08:18:54.826Z,99932.75
2023-04-06T08:21:22.025Z,99932.00
2023-04-06T08:23:49.216Z,99933.78
2023-04-06T08:26:16.662Z,99933.84
2023-04-06T08:28:46.355Z,99925.13
2023-04-06T08:31:14.285Z,99929.78
2023-04-06T08:33:41.795Z,99927.66
2023-04-06T08:36:09.894Z,99927.44
2023-04-06T08:38:37.193Z,99912.34
2023-04-06T08:41:11.133Z,99907.94
2023-04-06T08:43:45.602Z,99916.44
2023-04-06T08:46:13.280Z,99910.09
2023-04-06T08:48:41.202Z,99898.44
2023-04-06T08:51:08.988Z,99891.72
2023-04-06T08:53:36.921Z,99901.25
2023-04-06T08:56:04.537Z,99898.03
2023-04-06T08:58:38.602Z,99902.81
2023-04-06T09:01:08.476Z,99900.44
2023-04-06T09:03:38.493Z,99898.66
2023-04-06T09:06:05.842Z,99887.44
2023-04-06T09:08:37.252Z,99880.41
2023-04-06T09:11:04.725Z,99874.78
2023-04-06T09:13:32.197Z,99889.94
2023-04-06T09:16:00.479Z,99876.12
2023-04-06T09:18:34.536Z,99869.72
2023-04-06T09:21:06.062Z,99867.78
2023-04-06T09:23:33.261Z,99871.59
2023-04-06T09:26:06.488Z,99867.19
2023-04-06T09:28:43.313Z,99869.06
2023-04-06T09:31:11.184Z,99869.44
2023-04-06T09:33:39.774Z,99860.91
2023-04-06T09:36:07.389Z,99849.06
2023-04-06T09:38:34.678Z,99855.06
2023-04-06T09:41:03.152Z,99855.84
2023-04-06T09:43:30.893Z,99844.75
2023-04-06T09:45:59.769Z,99833.03
2023-04-06T09:48:29.292Z,99843.56
2023-04-06T09:50:59.142Z,99841.97
2023-04-06T09:53:26.562Z,99835.31
2023-04-06T09:55:53.719Z,99846.59
2023-04-06T09:58:27.143Z,99843.94
2023-04-06T10:00:54.867Z,99846.03
2023-04-06T10:03:27.720Z,99845.19
2023-04-06T10:05:59.761Z,99839.28
2023-04-06T10:08:31.800Z,99844.25
2023-04-06T10:11:00.278Z,99850.25
2023-04-06T10:13:27.816Z,99823.00
2023-04-06T10:15:55.399Z,99826.69
2023-04-06T10:18:22.691Z,99827.41
2023-04-06T10:20:50.146Z,99831.63
2023-04-06T10:23:21.758Z,99821.19
2023-04-06T10:25:55.902Z,99826.97
2023-04-06T10:28:24.016Z,99821.50
2023-04-06T10:30:57.364Z,99819.50
2023-04-06T10:33:24.853Z,99806.09
2023-04-06T10:35:52.139Z,99800.22
2023-04-06T10:38:23.053Z,99792.22
2023-04-06T10:40:53.071Z,99802.22
2023-04-06T10:43:21.249Z,99804.31
2023-04-06T10:45:58.620Z,99802.50
2023-04-06T10:48:27.101Z,99796.03
2023-04-06T10:50:54.828Z,99795.13
2023-04-06T10:53:25.796Z,99796.41
2023-04-06T10:55:54.002Z,99787.47
2023-04-06T10:58:21.143Z,99780.72
2023-04-06T11:00:51.142Z,99788.41
2023-04-06T11:03:19.259Z,99780.22
2023-04-06T11:05:48.170Z,99787.69
2023-04-06T11:08:31.890Z,99786.38
2023-04-06T11:11:10.443Z,99777.34
2023-04-06T11:13:44.797Z,99780.31
2023-04-06T11:16:19.252Z,99784.62
2023-04-06T11:18:52.739Z,99787.50
2023-04-06T11:21:21.085Z,99780.50
2023-04-06T11:23:48.258Z,99777.47
2023-04-06T11:26:15.873Z,99778.81
2023-04-06T11:28:45.228Z,99761.41
2023-04-06T11:31:12.628Z,99774.97
2023-04-06T11:33:39.952Z,99785.56
2023-04-06T11:36:07.628Z,99767.66
2023-04-06T11:38:35.070Z,99751.22
2023-04-06T11:41:02.905Z,99759.25
2023-04-06T11:43:30.896Z,99755.53
2023-04-06T11:46:03.210Z,99759.22
2023-04-06T11:48:31.264Z,99759.44
2023-04-06T11:50:59.706Z,99755.41
2023-04-06T11:53:27.076Z,99761.88
2023-04-06T11:55:54.609Z,99760.88
2023-04-06T11:58:21.886Z,99762.59
2023-04-06T12:00:49.117Z,99754.41
2023-04-06T12:03:16.846Z,99756.47
2023-04-06T12:05:44.549Z,99751.00
2023-04-06T12:08:11.853Z,99752.38
2023-04-06T12:10:39.385Z,99751.69
2023-04-06T12:13:06.688Z,99746.53
2023-04-06T12:15:33.892Z,99752.84
2023-04-06T12:18:01.659Z,99746.47
2023-04-06T12:20:29.266Z,99749.09
2023-04-06T12:22:56.462Z,99757.37
2023-04-06T12:25:23.918Z,99754.44
2023-04-06T12:27:51.356Z,99758.69
2023-04-06T12:30:18.621Z,99753.81
2023-04-06T12:32:46.882Z,99736.06
2023-04-06T12:35:16.877Z,99748.31
2023-04-06T12:37:44.122Z,99754.66
2023-04-06T12:40:13.326Z,99748.56
2023-04-06T12:42:41.870Z,99748.06
2023-04-06T12:45:09.744Z,99748.84
2023-04-06T12:47:37.502Z,99742.91
2023-04-06T12:50:08.021Z,99743.25
2023-04-06T12:52:36.558Z,99743.47
2023-04-06T12:55:04.451Z,99745.81
2023-04-06T12:57:32.083Z,99738.66
2023-04-06T12:59:59.727Z,99740.25
2023-04-06T13:02:28.183Z,99738.44
2023-04-06T13:04:55.631Z,99730.94
2023-04-06T13:07:22.989Z,99736.50
2023-04-06T13:09:50.708Z,99730.94
2023-04-06T13:12:17.951Z,99739.97
2023-04-06T13:14:45.404Z,99738.06
2023-04-06T13:17:12.838Z,99734.84
2023-04-06T13:19:40.515Z,99729.34
2023-04-06T13:22:07.808Z,99744.06
2023-04-06T13:24:36.783Z,99736.78
2023-04-06T13:27:04.022Z,99731.06
2023-04-06T13:29:31.219Z,99731.66
2023-04-06T13:31:58.794Z,99729.31
2023-04-06T13:34:25.997Z,99742.84
2023-04-06T13:36:53.201Z,99725.59
2023-04-06T13:39:21.010Z,99717.91
2023-04-06T13:41:48.171Z,99734.75
2023-04-06T13:44:15.358Z,99725.88
2023-04-06T13:46:44.367Z,99727.50
2023-04-06T13:49:11.915Z,99724.38
2023-04-06T13:51:40.038Z,99718.47
2023-04-06T13:54:07.604Z,99720.09
2023-04-06T13:56:35.605Z,99720.59
2023-04-06T13:59:03.848Z,99713.81
2023-04-06T14:01:31.526Z,99716.38
2023-04-06T14:04:01.610Z,99713.69
2023-04-06T14:06:31.551Z,99710.47
2023-04-06T14:08:59.650Z,99709.06
2023-04-06T14:11:27.394Z,99720.13
2023-04-06T14:13:57.302Z,99716.12
2023-04-06T14:16:26.013Z,99716.41
2023-04-06T14:18:53.356Z,99726.75
2023-04-06T14:21:21.125Z,99717.13
2023-04-06T14:23:48.665Z,99710.81
2023-04-06T14:26:16.332Z,99716.50
2023-04-06T14:28:43.726Z,99704.41
2023-04-06T14:31:14.381Z,99710.31
2023-04-06T14:33:43.274Z,99699.44
2023-04-06T14:36:11.888Z,99714.94
2023-04-06T14:38:40.452Z,99713.81
2023-04-06T14:41:09.053Z,99720.41
2023-04-06T14:43:36.560Z,99721.38
2023-04-06T14:46:03.840Z,99726.69
2023-04-06T14:48:31.302Z,99720.56
2023-04-06T14:50:58.913Z,99739.91
2023-04-06T14:53:26.179Z,99727.34
2023-04-06T14:55:53.556Z,99732.59
2023-04-06T14:58:21.488Z,99734.81
2023-04-06T15:00:48.930Z,99732.19
2023-04-06T15:03:16.683Z,99731.72
2023-04-06T15:05:44.278Z,99740.63
2023-04-06T15:08:12.591Z,99731.78
2023-04-06T15:10:40.290Z,99748.41
2023-04-06T15:13:07.773Z,99768.38
2023-04-06T15:15:34.948Z,99763.78
2023-04-06T15:18:03.539Z,99761.41
2023-04-06T15:20:31.558Z,99751.19
2023-04-06T15:22:58.807Z,99749.03
2023-04-06T15:25:26.305Z,99741.69
2023-04-06T15:27:54.791Z,99744.59
2023-04-06T15:30:22.051Z,99734.59
2023-04-06T15:33:04.806Z,99732.81
2023-04-06T15:35:32.545Z,99729.28
2023-04-06T15:37:59.748Z,99728.28
2023-04-06T15:40:27.334Z,99728.59
2023-04-06T15:42:54.784Z,99726.19
2023-04-06T15:45:22.181Z,99731.50
2023-04-06T15:47:50.574Z,99735.22
2023-04-06T15:50:19.734Z,99736.06
2023-04-06T15:52:47.051Z,99742.56
2023-04-06T15:55:14.200Z,99744.25
2023-04-06T15:57:41.677Z,99761.84
2023-04-06T16:00:10.369Z,99751.97
2023-04-06T16:02:38.180Z,99763.00
2023-04-06T16:05:05.787Z,99763.09
2023-04-06T16:07:34.317Z,99759.47
2023-04-06T16:10:02.366Z,99769.50
2023-04-06T16:12:30.824Z,99775.09
2023-04-06T16:14:58.017Z,99767.81
2023-04-06T16:17:25.659Z,99773.03
2023-04-06T16:19:52.979Z,99773.22
2023-04-06T16:22:20.926Z,99770.22
2023-04-06T16:24:48.345Z,99775.34
2023-04-06T16:27:15.842Z,99779.87
2023-04-06T16:29:43.076Z,99785.31
2023-04-06T16:32:12.319Z,99780.91
2023-04-06T16:34:39.571Z,99790.88
2023-04-06T16:37:06.867Z,99794.84
2023-04-06T16:39:34.516Z,99802.34
2023-04-06T16:42:02.819Z,99810.44
2023-04-06T16:44:30.478Z,99812.25
2023-04-06T16:46:58.013Z,99808.69
2023-04-06T16:49:25.769Z,99813.72
2023-04-06T16:51:52.946Z,99814.41
2023-04-06T16:54:20.436Z,99818.75
2023-04-06T16:56:55.054Z,99807.19
2023-04-06T16:59:22.443Z,99808.22
2023-04-06T17:01:49.739Z,99818.25
2023-04-06T17:04:18.419Z,99808.06
2023-04-06T17:06:45.982Z,99814.50
2023-04-06T17:09:13.270Z,99832.31
2023-04-06T17:11:46.650Z,99830.72
2023-04-06T17:14:14.366Z,99827.03
2023-04-06T17:16:41.707Z,99825.03
2023-04-06T17:19:09.959Z,99817.84
2023-04-06T17:21:38.777Z,99820.97
2023-04-06T17:24:06.122Z,99833.87
2023-04-06T17:26:33.313Z,99836.00
2023-04-06T17:29:01.062Z,99838.19
2023-04-06T17:31:28.250Z,99844.34
2023-04-06T17:33:55.444Z,99847.47
2023-04-06T17:36:22.954Z,99850.94
2023-04-06T17:38:50.628Z,99850.94
2023-04-06T17:41:17.928Z,99858.50
2023-04-06T17:43:45.645Z,99858.06
2023-04-06T17:46:13.112Z,99859.84
2023-04-06T17:48:40.632Z,99864.28
2023-04-06T17:51:08.325Z,99865.88
2023-04-06T17:53:36.849Z,99868.31
2023-04-06T17:56:04.683Z,99869.44
2023-04-06T17:58:32.239Z,99867.97
2023-04-06T18:00:59.482Z,99863.19
2023-04-06T18:03:27.428Z,99870.22
2023-04-06T18:05:54.970Z,99862.16
2023-04-06T18:08:22.530Z,99865.56
2023-04-06T18:10:50.311Z,99865.22
2023-04-06T18:13:17.453Z,99859.78
2023-04-06T18:15:44.875Z,99866.06
2023-04-06T18:18:12.363Z,99867.66
2023-04-06T18:20:40.316Z,99875.19
2023-04-06T18:23:07.553Z,99859.88
2023-04-06T18:25:38.550Z,99856.06
2023-04-06T18:28:06.296Z,99856.75
2023-04-06T18:30:33.636Z,99865.88
2023-04-06T18:33:01.125Z,99858.75
2023-04-06T18:35:28.404Z,99864.53
2023-04-06T18:37:55.731Z,99865.97
2023-04-06T18:40:33.058Z,99869.88
2023-04-06T18:43:00.555Z,99868.19
2023-04-06T18:45:28.059Z,99870.87
2023-04-06T18:47:56.310Z,99867.41
2023-04-06T18:50:23.833Z,99871.00
2023-04-06T18:52:52.249Z,99871.09
2023-04-06T18:55:19.982Z,99868.78
2023-04-06T18:57:47.487Z,99875.19
2023-04-06T19:00:15.728Z,99876.78
2023-04-06T19:02:43.717Z,99876.06
2023-04-06T19:05:12.106Z,99872.13
2023-04-06T19:07:39.956Z,99871.13
2023-04-06T19:10:07.630Z,99868.34
2023-04-06T19:12:35.934Z,99866.25
2023-04-06T19:15:05.280Z,99865.72
2023-04-06T19:17:32.402Z,99863.56
2023-04-06T19:19:59.866Z,99865.31
2023-04-06T19:22:27.572Z,99857.09
2023-04-06T19:24:54.769Z,99842.97
2023-04-06T19:27:22.077Z,99850.00
2023-04-06T19:29:50.402Z,99846.16
2023-04-06T19:32:17.912Z,99839.31
2023-04-06T19:34:45.207Z,99833.87
2023-04-06T19:37:12.687Z,99832.59
2023-04-06T19:39:40.170Z,99831.78
2023-04-06T19:42:07.357Z,99833.72
2023-04-06T19:44:36.025Z,99832.75
2023-04-06T19:47:03.171Z,99828.44
2023-04-06T19:49:30.362Z,99829.50
2023-04-06T19:51:57.955Z,99825.87
2023-04-06T19:54:26.166Z,99834.47
2023-04-06T19:56:54.161Z,99829.56
2023-04-06T19:59:21.940Z,99825.87
2023-04-06T20:01:49.217Z,99820.19
2023-04-06T20:04:16.973Z,99830.12
2023-04-06T20:06:44.383Z,99819.81
2023-04-06T20:09:12.117Z,99823.03
2023-04-06T20:11:39.574Z,99817.31
2023-04-06T20:14:07.464Z,99825.78
2023-04-06T20:16:34.772Z,99823.56
2023-04-06T20:19:02.349Z,99823.50
2023-04-06T20:21:29.520Z,99828.66
2023-04-06T20:23:56.762Z,99826.66
2023-04-06T20:26:24.174Z,99825.00
2023-04-06T20:28:51.352Z,99829.12
2023-04-06T20:31:18.475Z,99822.12
2023-04-06T20:33:46.010Z,99821.75
2023-04-06T20:36:13.164Z,99827.81
2023-04-06T20:38:40.646Z,99824.69
2023-04-06T20:41:08.110Z,99819.75
2023-04-06T20:43:35.634Z,99819.53
2023-04-06T20:46:03.187Z,99821.59
2023-04-06T20:48:34.303Z,99821.38
2023-04-06T20:51:03.380Z,99813.78
2023-04-06T20:53:31.798Z,99811.63
2023-04-06T20:56:01.065Z,99822.19
2023-04-06T20:58:28.288Z,99829.78
2023-04-06T21:00:55.961Z,99818.16
2023-04-06T21:03:23.944Z,99817.63
2023-04-06T21:05:52.094Z,99802.37
2023-04-06T21:08:19.517Z,99808.63
2023-04-06T21:10:46.703Z,99809.50
2023-04-06T21:13:13.837Z,99814.44
2023-04-06T21:15:41.468Z,99823.66
2023-04-06T21:18:09.010Z,99817.78
2023-04-06T21:20:37.055Z,99813.28
2023-04-06T21:23:04.465Z,99811.09
2023-04-06T21:25:31.690Z,99814.88
2023-04-06T21:27:58.873Z,99819.31
2023-04-06T21:30:26.281Z,99819.50
2023-04-06T21:32:53.470Z,99820.81
2023-04-06T21:35:20.742Z,99817.44
2023-04-06T21:37:48.172Z,99819.31
2023-04-06T21:40:15.346Z,99813.50
2023-04-06T21:42:42.524Z,99805.72
2023-04-06T21:45:10.113Z,99807.41
2023-04-06T21:47:37.298Z,99798.06
2023-04-06T21:50:04.629Z,99794.56
2023-04-06T21:52:32.053Z,99796.06
2023-04-06T21:54:59.290Z,99800.31
2023-04-06T21:57:26.452Z,99789.88
2023-04-06T21:59:54.039Z,99787.81
2023-04-06T22:02:21.802Z,99791.44
2023-04-06T22:04:49.566Z,99783.81
2023-04-06T22:07:16.904Z,99785.25
2023-04-06T22:09:50.796Z,99773.06
2023-04-06T22:12:19.471Z,99778.69
2023-04-06T22:14:46.679Z,99767.47
2023-04-06T22:17:14.258Z,99766.66
2023-04-06T22:19:41.800Z,99767.47
2023-04-06T22:22:08.967Z,99771.41
2023-04-06T22:24:36.192Z,99763.09
2023-04-06T22:27:04.069Z,99773.59
2023-04-06T22:29:31.241Z,99767.94
2023-04-06T22:31:58.422Z,99755.16
2023-04-06T22:34:25.978Z,99755.69
2023-04-06T22:36:53.168Z,99755.78
2023-04-06T22:39:20.490Z,99766.25
2023-04-06T22:41:48.068Z,99760.59
2023-04-06T22:44:15.648Z,99768.12
2023-04-06T22:46:42.961Z,99764.28
2023-04-06T22:49:10.580Z,99776.56
2023-04-06T22:51:37.820Z,99766.59
2023-04-06T22:54:04.986Z,99759.28
2023-04-06T22:56:32.466Z,99762.78
2023-04-06T22:58:59.752Z,99764.16
2023-04-06T23:01:26.973Z,99758.25
2023-04-06T23:03:54.813Z,99768.56
2023-04-06T23:06:22.128Z,99765.66
2023-04-06T23:08:49.336Z,99755.16
2023-04-06T23:11:16.806Z,99757.53
2023-04-06T23:13:43.985Z,99753.19
2023-04-06T23:16:11.505Z,99751.97
2023-04-06T23:18:39.106Z,99750.34
2023-04-06T23:21:07.756Z,99743.53
2023-04-06T23:23:35.083Z,99743.13
2023-04-06T23:26:02.522Z,99742.41
2023-04-06T23:28:29.723Z,99740.34
2023-04-06T23:30:56.971Z,99734.50
2023-04-06T23:33:27.064Z,99734.50
2023-04-06T23:35:54.201Z,99738.00
2023-04-06T23:38:21.357Z,99731.22
2023-04-06T23:40:48.758Z,99737.66
2023-04-06T23:43:15.927Z,99738.25
2023-04-06T23:45:43.172Z,99733.28
2023-04-06T23:48:10.898Z,99733.66
2023-04-06T23:50:38.089Z,99727.81
2023-04-06T23:53:05.645Z,99733.69
2023-04-06T23:55:33.219Z,99727.25
2023-04-06T23:58:00.518Z,99730.25
